Time;durP1;ratioP1;P1;durP2;ratioP2;P2;SDS_P1;SDS_P2;PMS_P1;PMS_P2;Temp;Humidity;BMP_temperature;BMP_pressure;BME280_temperature;BME280_humidity;BME280_pressure;Samples;Min_cycle;Max_cycle;Signal;HPM_P1;HPM_P2
2023/06/08 00:00:05;;;;;;;5.03;4.80;;;22.00;45.50;;;;;;5013165;28;20447;-96
2023/06/08 00:02:31;;;;;;;5.87;5.47;;;22.00;45.40;;;;;;5019770;28;20232;-96
2023/06/08 00:05:02;;;;;;;4.93;4.63;;;22.00;45.50;;;;;;5002033;28;20456;-96
2023/06/08 00:07:28;;;;;;;5.67;5.37;;;22.00;45.50;;;;;;5006991;28;20222;-96
2023/06/08 00:09:54;;;;;;;4.90;4.70;;;22.00;45.50;;;;;;4995656;28;20884;-96
2023/06/08 00:12:20;;;;;;;5.67;5.37;;;22.00;45.50;;;;;;4985506;28;20984;-96
2023/06/08 00:14:46;;;;;;;6.00;5.70;;;22.00;45.60;;;;;;4999267;28;20226;-96
2023/06/08 00:17:14;;;;;;;5.37;5.17;;;22.00;45.50;;;;;;5000702;28;20452;-96
2023/06/08 00:19:42;;;;;;;5.30;5.00;;;22.00;45.50;;;;;;5008145;28;20206;-95
2023/06/08 00:22:08;;;;;;;5.37;5.17;;;22.00;45.50;;;;;;4994151;28;20465;-96
2023/06/08 00:24:37;;;;;;;5.40;5.13;;;22.00;45.50;;;;;;4999042;28;20978;-95
2023/06/08 00:27:08;;;;;;;5.60;5.37;;;22.00;45.60;;;;;;5007727;28;20496;-96
2023/06/08 00:29:34;;;;;;;5.93;5.63;;;22.00;45.50;;;;;;4988564;28;21675;-95
2023/06/08 00:32:00;;;;;;;5.67;5.47;;;22.00;45.60;;;;;;5007645;28;20986;-96
2023/06/08 00:34:26;;;;;;;5.10;4.90;;;22.00;45.50;;;;;;5016561;28;20217;-95
2023/06/08 00:36:52;;;;;;;5.30;5.10;;;22.00;45.60;;;;;;4999172;28;20229;-96
2023/06/08 00:39:18;;;;;;;5.20;5.00;;;22.00;45.50;;;;;;5034946;28;20463;-95
2023/06/08 00:41:43;;;;;;;5.63;5.30;;;22.00;45.50;;;;;;5015093;28;20234;-95
2023/06/08 00:44:09;;;;;;;5.67;5.37;;;22.00;45.60;;;;;;5005770;28;20697;-94
2023/06/08 00:46:39;;;;;;;5.53;5.30;;;22.00;45.50;;;;;;5007953;28;20737;-95
2023/06/08 00:49:08;;;;;;;5.87;5.57;;;22.00;45.60;;;;;;4994306;28;20463;-95
2023/06/08 00:51:38;;;;;;;5.80;5.50;;;22.00;45.60;;;;;;5026120;28;20550;-95
2023/06/08 00:54:05;;;;;;;5.33;5.13;;;22.00;45.60;;;;;;5008797;28;20443;-95
2023/06/08 00:56:33;;;;;;;5.33;5.03;;;22.00;45.60;;;;;;5016536;28;20451;-96
2023/06/08 00:59:02;;;;;;;5.30;5.00;;;22.00;45.50;;;;;;5032434;28;20455;-95
2023/06/08 01:01:29;;;;;;;5.57;5.33;;;22.00;45.60;;;;;;4985110;28;20478;-96
2023/06/08 01:04:05;;;;;;;6.17;5.70;;;22.00;45.70;;;;;;5011470;28;20439;-96
2023/06/08 01:06:32;;;;;;;5.30;5.10;;;22.00;45.60;;;;;;5018621;28;20462;-96
2023/06/08 01:09:23;;;;;;;6.10;5.77;;;22.00;45.60;;;;;;4988663;28;20447;-95
2023/06/08 01:12:03;;;;;;;4.97;4.77;;;22.00;45.60;;;;;;5013433;28;20605;-95
2023/06/08 01:15:11;;;;;;;5.73;5.43;;;22.00;45.60;;;;;;5028387;28;20459;-95
2023/06/08 01:17:45;;;;;;;6.20;5.80;;;22.00;45.60;;;;;;4997704;28;20471;-96
2023/06/08 01:20:32;;;;;;;5.57;5.27;;;21.90;45.60;;;;;;4982146;28;21696;-96
2023/06/08 01:23:22;;;;;;;5.20;5.00;;;21.90;45.60;;;;;;5017749;28;20460;-96
2023/06/08 01:25:52;;;;;;;5.50;5.20;;;21.90;45.60;;;;;;5007279;28;20464;-96
2023/06/08 01:28:18;;;;;;;5.27;4.97;;;21.90;45.60;;;;;;5018534;28;20493;-95
2023/06/08 01:30:48;;;;;;;4.83;4.53;;;21.90;45.60;;;;;;5001718;28;20477;-96
2023/06/08 01:33:20;;;;;;;5.53;5.17;;;21.90;45.60;;;;;;4992606;28;20352;-96
2023/06/08 01:36:10;;;;;;;5.70;5.40;;;21.90;45.60;;;;;;4983430;28;20466;-96
2023/06/08 01:38:50;;;;;;;5.73;5.43;;;21.90;45.60;;;;;;4997381;28;20456;-95
2023/06/08 01:41:30;;;;;;;4.67;4.47;;;21.90;45.60;;;;;;5005300;28;20551;-95
2023/06/08 01:44:01;;;;;;;5.67;5.37;;;21.90;45.60;;;;;;5023727;28;20973;-95
2023/06/08 01:46:30;;;;;;;5.10;4.90;;;21.90;45.60;;;;;;5020057;28;20998;-94
2023/06/08 01:49:02;;;;;;;5.13;4.70;;;21.90;45.60;;;;;;5032664;28;20495;-95
2023/06/08 01:51:29;;;;;;;5.30;5.00;;;21.90;45.60;;;;;;5014366;28;21098;-95
2023/06/08 01:54:02;;;;;;;5.40;5.20;;;22.00;45.70;;;;;;5039150;28;20457;-94
2023/06/08 01:56:32;;;;;;;5.20;5.00;;;21.90;45.60;;;;;;5008395;28;20487;-94
2023/06/08 01:58:58;;;;;;;5.60;5.20;;;21.90;45.60;;;;;;5028960;28;20447;-96
2023/06/08 02:01:24;;;;;;;5.10;4.80;;;21.90;45.60;;;;;;5011801;28;20515;-93
2023/06/08 02:03:49;;;;;;;4.63;4.43;;;21.90;45.60;;;;;;5016597;28;20214;-95
2023/06/08 02:06:18;;;;;;;5.30;5.00;;;21.90;45.70;;;;;;5014803;28;21064;-94
2023/06/08 02:08:43;;;;;;;5.10;4.90;;;21.90;45.70;;;;;;5007073;28;20219;-94
2023/06/08 02:11:10;;;;;;;5.03;4.73;;;21.90;45.70;;;;;;5001893;28;20835;-95
2023/06/08 02:13:40;;;;;;;4.30;4.10;;;21.90;45.70;;;;;;5019230;28;20594;-95
2023/06/08 02:16:05;;;;;;;5.80;5.43;;;21.90;45.70;;;;;;5010775;28;20552;-95
2023/06/08 02:18:34;;;;;;;4.93;4.73;;;21.90;45.70;;;;;;5006478;28;20473;-94
2023/06/08 02:21:02;;;;;;;5.13;4.83;;;21.90;45.80;;;;;;4997769;28;20261;-94
2023/06/08 02:23:28;;;;;;;4.90;4.70;;;21.90;45.70;;;;;;5000078;28;20456;-94
2023/06/08 02:25:53;;;;;;;5.30;5.10;;;21.90;45.70;;;;;;5013026;28;20470;-94
2023/06/08 02:28:20;;;;;;;4.90;4.63;;;21.90;45.70;;;;;;5018472;28;21522;-94
2023/06/08 02:30:48;;;;;;;5.53;4.90;;;21.90;45.70;;;;;;5001546;28;20572;-94
2023/06/08 02:33:14;;;;;;;4.53;4.33;;;21.90;45.70;;;;;;5027892;28;20560;-94
2023/06/08 02:35:40;;;;;;;5.20;4.90;;;21.90;45.70;;;;;;5007864;28;20541;-95
2023/06/08 02:38:06;;;;;;;4.93;4.73;;;21.90;45.70;;;;;;5005294;28;20234;-95
2023/06/08 02:40:32;;;;;;;4.40;4.20;;;21.90;45.70;;;;;;5023236;28;20226;-95
2023/06/08 02:43:00;;;;;;;4.77;4.47;;;21.90;45.70;;;;;;5008638;28;20454;-94
2023/06/08 02:45:26;;;;;;;4.50;4.30;;;21.90;46.50;;;;;;5008578;28;20248;-94
2023/06/08 02:47:52;;;;;;;4.57;4.27;;;21.90;45.70;;;;;;5023919;28;20949;-94
2023/06/08 02:50:18;;;;;;;7.47;5.07;;;21.90;45.70;;;;;;5019548;28;20214;-94
2023/06/08 02:52:44;;;;;;;4.50;4.30;;;21.90;45.80;;;;;;5008587;28;20241;-94
2023/06/08 02:55:12;;;;;;;5.20;5.00;;;21.90;45.80;;;;;;5035623;28;20456;-95
2023/06/08 02:57:38;;;;;;;4.90;4.70;;;21.90;45.70;;;;;;5027563;28;20222;-95
2023/06/08 03:00:08;;;;;;;4.83;4.63;;;21.90;45.80;;;;;;4989981;28;20983;-96
2023/06/08 03:02:37;;;;;;;4.37;4.17;;;21.90;45.70;;;;;;5012279;28;20458;-94
2023/06/08 03:05:03;;;;;;;4.53;4.33;;;21.90;45.80;;;;;;5018895;28;20446;-95
2023/06/08 03:07:29;;;;;;;4.83;4.63;;;21.90;45.80;;;;;;5017182;28;20467;-94
2023/06/08 03:09:55;;;;;;;5.00;4.70;;;21.90;45.80;;;;;;5000307;28;20833;-94
2023/06/08 03:12:21;;;;;;;4.87;4.60;;;21.90;45.80;;;;;;5015221;28;20462;-94
2023/06/08 03:14:48;;;;;;;4.63;4.43;;;21.90;45.70;;;;;;5020412;28;20305;-96
2023/06/08 03:17:18;;;;;;;4.30;4.10;;;21.90;45.80;;;;;;5003041;28;20759;-94
2023/06/08 03:19:44;;;;;;;4.30;4.10;;;21.90;45.70;;;;;;5024403;28;20470;-95
2023/06/08 03:22:10;;;;;;;5.30;5.00;;;21.90;45.70;;;;;;4995611;28;20451;-95
2023/06/08 03:24:36;;;;;;;4.50;4.30;;;21.90;45.70;;;;;;5003503;28;20210;-94
2023/06/08 03:27:03;;;;;;;4.63;4.43;;;21.90;45.80;;;;;;5008429;28;20337;-95
2023/06/08 03:29:29;;;;;;;5.60;5.30;;;21.90;45.70;;;;;;5025218;28;20558;-95
2023/06/08 03:31:56;;;;;;;4.73;4.50;;;21.90;46.50;;;;;;5018974;28;20477;-95
2023/06/08 03:34:25;;;;;;;4.50;4.30;;;21.90;45.80;;;;;;4998236;28;21072;-96
2023/06/08 03:36:52;;;;;;;5.03;4.73;;;21.90;45.70;;;;;;5022196;28;20463;-96
2023/06/08 03:39:18;;;;;;;4.77;4.57;;;21.90;45.80;;;;;;5041260;28;20454;-94
2023/06/08 03:41:44;;;;;;;4.20;4.00;;;21.90;45.80;;;;;;5020031;28;20467;-94
2023/06/08 03:44:09;;;;;;;4.83;4.63;;;21.90;45.90;;;;;;5023542;28;20218;-94
2023/06/08 03:46:36;;;;;;;4.57;4.33;;;21.90;45.80;;;;;;5041094;28;20674;-95
2023/06/08 03:49:02;;;;;;;4.50;4.30;;;21.90;45.80;;;;;;5006052;28;20625;-94
2023/06/08 03:51:27;;;;;;;5.67;5.27;;;21.90;45.80;;;;;;5004922;28;20444;-94
2023/06/08 03:53:53;;;;;;;4.20;4.00;;;21.90;45.80;;;;;;5009946;28;20219;-94
2023/06/08 03:56:19;;;;;;;4.67;4.43;;;21.90;45.80;;;;;;5014354;28;20226;-95
2023/06/08 03:58:45;;;;;;;4.90;4.70;;;21.90;45.80;;;;;;5026196;28;20330;-94
2023/06/08 04:01:14;;;;;;;4.47;4.17;;;21.90;45.80;;;;;;5009719;28;20448;-95
2023/06/08 04:03:41;;;;;;;4.53;4.33;;;21.90;45.90;;;;;;5013622;28;20439;-95
2023/06/08 04:06:08;;;;;;;4.17;3.97;;;21.90;45.80;;;;;;5011567;28;20454;-94
2023/06/08 04:08:34;;;;;;;4.27;4.07;;;21.90;45.80;;;;;;5028524;28;20455;-94
2023/06/08 04:11:00;;;;;;;5.10;4.80;;;21.90;45.80;;;;;;4997534;28;20456;-93
2023/06/08 04:13:26;;;;;;;4.10;3.90;;;21.90;45.90;;;;;;5015616;28;20471;-95
2023/06/08 04:15:52;;;;;;;4.87;4.67;;;21.90;45.90;;;;;;5011937;28;21249;-94
2023/06/08 04:18:17;;;;;;;4.17;3.97;;;21.90;45.90;;;;;;5027034;28;20276;-94
2023/06/08 04:20:43;;;;;;;4.23;4.03;;;21.90;45.90;;;;;;5022839;28;20886;-94
2023/06/08 04:23:11;;;;;;;4.60;4.40;;;21.90;45.80;;;;;;5014092;28;20643;-94
2023/06/08 04:25:36;;;;;;;3.83;3.63;;;21.90;45.90;;;;;;5014333;28;20223;-94
2023/06/08 04:28:05;;;;;;;5.17;4.80;;;21.90;45.90;;;;;;5035021;28;20447;-95
2023/06/08 04:30:31;;;;;;;4.43;4.13;;;21.90;45.90;;;;;;5015270;28;21681;-94
2023/06/08 04:32:57;;;;;;;4.27;4.07;;;21.90;45.90;;;;;;4989842;28;20471;-94
2023/06/08 04:35:22;;;;;;;4.10;3.90;;;21.90;45.90;;;;;;4986408;28;20219;-96
2023/06/08 04:37:50;;;;;;;4.70;4.50;;;21.90;45.90;;;;;;4994313;28;20738;-96
2023/06/08 04:40:16;;;;;;;4.40;4.20;;;21.90;45.90;;;;;;5012865;28;20279;-95
2023/06/08 04:42:44;;;;;;;5.00;4.80;;;21.90;45.80;;;;;;5006638;28;20423;-95
2023/06/08 04:45:11;;;;;;;4.07;3.87;;;21.90;45.90;;;;;;5020305;28;20211;-95
2023/06/08 04:47:37;;;;;;;4.60;4.40;;;21.90;45.90;;;;;;5008855;28;20528;-95
2023/06/08 04:50:07;;;;;;;4.07;3.87;;;21.90;45.90;;;;;;5007116;28;20515;-94
2023/06/08 04:52:40;;;;;;;3.87;3.67;;;21.90;45.80;;;;;;5035739;28;20464;-95
2023/06/08 04:55:07;;;;;;;4.00;3.80;;;21.90;45.90;;;;;;5001529;28;20613;-95
2023/06/08 04:57:36;;;;;;;4.60;4.40;;;21.90;45.80;;;;;;4997290;28;20505;-95
2023/06/08 05:00:05;;;;;;;4.20;4.00;;;21.90;45.80;;;;;;5005001;28;22436;-93
2023/06/08 05:02:31;;;;;;;4.37;4.07;;;21.90;45.70;;;;;;5014513;28;20447;-93
2023/06/08 05:04:58;;;;;;;4.27;4.07;;;21.90;45.80;;;;;;4983175;28;20548;-94
2023/06/08 05:07:24;;;;;;;4.23;4.03;;;21.90;45.80;;;;;;5016766;28;20970;-95
2023/06/08 05:09:50;;;;;;;4.83;4.63;;;21.90;46.20;;;;;;5005020;28;20554;-95
2023/06/08 05:12:16;;;;;;;4.57;4.17;;;21.90;45.80;;;;;;5004967;28;20230;-94
2023/06/08 05:14:42;;;;;;;5.10;4.70;;;21.90;45.70;;;;;;5011793;28;20843;-94
2023/06/08 05:17:08;;;;;;;4.00;3.80;;;21.90;45.70;;;;;;5021012;28;20433;-93
2023/06/08 05:19:35;;;;;;;4.47;4.07;;;21.90;45.70;;;;;;5015457;28;20236;-95
2023/06/08 05:22:00;;;;;;;4.07;3.87;;;21.90;45.70;;;;;;4978535;28;20451;-96
2023/06/08 05:24:26;;;;;;;4.50;4.30;;;21.90;45.70;;;;;;5012352;28;20504;-93
2023/06/08 05:26:52;;;;;;;4.20;4.00;;;21.90;45.60;;;;;;5007041;28;20776;-92
2023/06/08 05:29:17;;;;;;;4.20;4.00;;;21.90;45.60;;;;;;5013599;28;20297;-92
2023/06/08 05:31:50;;;;;;;3.90;3.70;;;21.90;45.60;;;;;;5011454;28;20238;-92
2023/06/08 05:34:15;;;;;;;4.27;4.07;;;21.90;45.60;;;;;;5004733;28;20222;-93
2023/06/08 05:36:41;;;;;;;4.20;4.00;;;21.90;45.60;;;;;;5003002;28;20800;-94
2023/06/08 05:39:07;;;;;;;4.20;4.00;;;21.90;45.60;;;;;;5021243;28;20252;-93
2023/06/08 05:41:33;;;;;;;4.83;4.60;;;21.90;45.60;;;;;;5015661;28;20221;-93
2023/06/08 05:43:59;;;;;;;5.03;4.70;;;21.90;45.60;;;;;;4998226;28;20477;-90
2023/06/08 05:46:25;;;;;;;4.17;3.97;;;21.90;46.30;;;;;;5014825;28;20472;-90
2023/06/08 05:48:50;;;;;;;4.13;3.83;;;21.90;45.60;;;;;;5011115;28;20608;-96
2023/06/08 05:51:16;;;;;;;4.20;4.00;;;21.90;45.60;;;;;;4976454;28;20220;-95
2023/06/08 05:53:41;;;;;;;4.10;3.90;;;21.90;45.50;;;;;;5018843;28;20226;-96
2023/06/08 05:56:07;;;;;;;3.77;3.57;;;21.90;45.50;;;;;;5045009;23;20241;-68
2023/06/08 05:58:33;;;;;;;4.00;3.80;;;21.90;45.50;;;;;;5035397;28;20885;-67
2023/06/08 06:00:59;;;;;;;4.90;4.53;;;21.90;45.50;;;;;;5025608;28;20223;-67
2023/06/08 06:03:25;;;;;;;6.80;4.40;;;22.00;45.50;;;;;;5040215;28;20810;-68
2023/06/08 06:05:50;;;;;;;4.80;4.50;;;22.00;45.30;;;;;;5034905;28;20462;-69
2023/06/08 06:08:16;;;;;;;5.00;4.60;;;22.00;45.30;;;;;;5030746;28;21453;-68
2023/06/08 06:10:41;;;;;;;4.50;4.30;;;22.00;45.30;;;;;;5033397;28;20246;-68
2023/06/08 06:13:07;;;;;;;4.70;4.50;;;22.00;45.30;;;;;;5028071;28;20379;-68
2023/06/08 06:15:32;;;;;;;4.97;4.57;;;22.00;45.20;;;;;;5033438;28;20222;-68
2023/06/08 06:17:59;;;;;;;4.73;4.50;;;22.00;45.20;;;;;;5040586;28;20246;-68
2023/06/08 06:20:27;;;;;;;4.67;4.37;;;22.00;45.20;;;;;;5032284;28;20697;-68
2023/06/08 06:22:52;;;;;;;4.47;4.27;;;22.00;45.20;;;;;;5038376;28;20458;-67
2023/06/08 06:25:18;;;;;;;4.73;4.40;;;22.00;45.20;;;;;;5035361;28;20536;-68
2023/06/08 06:27:44;;;;;;;4.73;4.53;;;22.00;45.20;;;;;;5034059;28;20227;-69
2023/06/08 06:30:10;;;;;;;4.37;4.07;;;22.00;46.00;;;;;;5037144;28;20226;-68
2023/06/08 06:32:35;;;;;;;4.73;3.83;;;22.00;45.20;;;;;;5040175;28;20234;-67
2023/06/08 06:35:01;;;;;;;4.70;4.50;;;22.00;45.20;;;;;;5036593;28;20226;-67
2023/06/08 06:37:34;;;;;;;4.30;3.90;;;22.00;45.20;;;;;;5033302;28;20226;-68
2023/06/08 06:40:06;;;;;;;3.77;3.57;;;22.00;45.20;;;;;;5037115;28;20237;-67
2023/06/08 06:42:32;;;;;;;3.40;3.20;;;22.00;45.20;;;;;;5041065;28;20486;-67
2023/06/08 06:44:58;;;;;;;4.47;4.27;;;22.00;45.20;;;;;;5037966;28;20844;-67
2023/06/08 06:47:24;;;;;;;4.30;4.00;;;22.00;45.20;;;;;;5035704;28;20504;-67
2023/06/08 06:49:50;;;;;;;3.80;3.60;;;22.00;45.30;;;;;;5039991;28;20253;-67
2023/06/08 06:52:15;;;;;;;3.80;3.60;;;22.00;45.20;;;;;;5040795;28;20605;-67
2023/06/08 06:54:41;;;;;;;3.93;3.63;;;22.00;45.20;;;;;;5042327;28;20222;-67
2023/06/08 06:57:07;;;;;;;4.10;3.90;;;22.00;45.20;;;;;;5043487;28;20717;-67
2023/06/08 06:59:33;;;;;;;4.00;3.80;;;22.00;45.20;;;;;;5038927;28;20225;-67
2023/06/08 07:01:59;;;;;;;3.70;3.50;;;22.00;45.30;;;;;;5040472;28;20402;-67
2023/06/08 07:04:25;;;;;;;4.27;4.07;;;22.00;45.30;;;;;;5034164;28;20459;-67
2023/06/08 07:06:52;;;;;;;4.43;4.23;;;22.00;46.00;;;;;;5021659;28;20222;-67
2023/06/08 07:09:21;;;;;;;4.10;3.90;;;22.00;45.30;;;;;;5035962;28;20474;-67
2023/06/08 07:11:47;;;;;;;4.13;3.93;;;22.00;45.20;;;;;;5035077;28;20961;-67
2023/06/08 07:14:13;;;;;;;4.20;4.00;;;22.00;45.30;;;;;;5038582;28;20459;-66
2023/06/08 07:16:38;;;;;;;5.73;4.40;;;22.00;45.30;;;;;;5035996;28;20463;-66
2023/06/08 07:19:04;;;;;;;3.70;3.50;;;22.00;45.30;;;;;;5029162;28;21595;-66
2023/06/08 07:21:30;;;;;;;5.10;3.57;;;22.00;45.30;;;;;;5030759;28;20225;-65
2023/06/08 07:23:57;;;;;;;4.30;4.10;;;22.00;45.30;;;;;;5031878;28;21147;-65
2023/06/08 07:26:23;;;;;;;4.50;4.10;;;22.00;45.30;;;;;;5027699;28;20277;-65
2023/06/08 07:28:53;;;;;;;5.20;4.80;;;22.00;45.30;;;;;;5028544;28;20969;-65
2023/06/08 07:31:19;;;;;;;5.00;4.60;;;22.00;45.20;;;;;;5029923;28;20210;-65
2023/06/08 07:33:44;;;;;;;6.67;3.97;;;22.00;45.30;;;;;;5035166;28;21306;-66
2023/06/08 07:36:10;;;;;;;5.03;4.63;;;22.00;45.20;;;;;;5030439;28;20226;-66
2023/06/08 07:38:36;;;;;;;8.40;4.33;;;22.00;45.20;;;;;;5034087;28;20697;-65
2023/06/08 07:41:01;;;;;;;8.17;4.77;;;22.10;45.30;;;;;;5030905;28;20221;-65
2023/06/08 07:43:27;;;;;;;4.63;4.30;;;22.00;45.20;;;;;;5033854;28;20226;-65
2023/06/08 07:45:52;;;;;;;9.50;4.50;;;22.00;45.20;;;;;;5027485;28;20743;-65
2023/06/08 07:48:18;;;;;;;4.70;4.30;;;22.10;45.30;;;;;;5049585;28;20816;-66
2023/06/08 07:50:43;;;;;;;7.00;4.30;;;22.10;45.30;;;;;;5031889;28;20222;-65
2023/06/08 07:53:11;;;;;;;4.40;3.80;;;22.10;45.30;;;;;;5033137;28;20681;-65
2023/06/08 07:55:36;;;;;;;8.93;4.30;;;22.10;45.40;;;;;;5026154;28;20226;-66
2023/06/08 07:58:02;;;;;;;5.43;4.40;;;22.10;45.40;;;;;;5031933;28;20799;-66
2023/06/08 08:00:27;;;;;;;4.70;4.40;;;22.10;45.40;;;;;;5029781;28;20222;-66
2023/06/08 08:02:53;;;;;;;4.07;3.77;;;22.10;45.40;;;;;;5032002;28;20242;-65
2023/06/08 08:05:19;;;;;;;6.00;5.50;;;22.10;45.40;;;;;;5032759;28;20222;-66
2023/06/08 08:07:44;;;;;;;4.63;4.20;;;22.10;45.40;;;;;;5030486;28;20222;-66
2023/06/08 08:10:10;;;;;;;5.57;4.53;;;22.10;45.40;;;;;;5041174;28;20292;-65
2023/06/08 08:12:35;;;;;;;4.30;4.00;;;22.10;45.50;;;;;;5032431;28;20284;-66
2023/06/08 08:15:01;;;;;;;4.27;4.07;;;22.10;45.50;;;;;;5012227;28;20231;-67
2023/06/08 08:17:27;;;;;;;5.97;4.70;;;22.10;45.40;;;;;;5023582;28;20221;-66
2023/06/08 08:19:52;;;;;;;5.03;4.70;;;22.10;45.40;;;;;;5032436;28;20237;-67
2023/06/08 08:22:18;;;;;;;4.70;4.40;;;22.10;45.50;;;;;;5036217;28;20222;-68
2023/06/08 08:24:43;;;;;;;5.03;4.73;;;22.10;45.50;;;;;;5033240;28;20210;-66
2023/06/08 08:27:10;;;;;;;4.57;4.17;;;22.10;45.50;;;;;;5034644;28;20226;-66
2023/06/08 08:29:35;;;;;;;5.73;5.10;;;22.10;45.50;;;;;;5027584;28;20271;-66
2023/06/08 08:32:01;;;;;;;5.23;4.83;;;22.10;45.50;;;;;;5032100;28;21010;-65
2023/06/08 08:34:26;;;;;;;4.73;4.47;;;22.10;45.50;;;;;;5036466;28;20264;-65
2023/06/08 08:36:52;;;;;;;4.97;4.53;;;22.10;45.50;;;;;;5028222;28;20210;-65
2023/06/08 08:39:17;;;;;;;4.70;4.50;;;22.10;45.50;;;;;;5031334;28;20280;-64
2023/06/08 08:41:45;;;;;;;4.20;3.90;;;22.10;45.60;;;;;;5033770;28;20220;-65
2023/06/08 08:44:18;;;;;;;4.77;4.57;;;22.10;45.60;;;;;;5034169;28;20264;-65
2023/06/08 08:46:44;;;;;;;6.40;5.27;;;22.10;45.60;;;;;;5034040;28;20462;-65
2023/06/08 08:49:17;;;;;;;5.27;4.97;;;22.10;45.50;;;;;;5029392;28;20478;-65
2023/06/08 08:51:49;;;;;;;4.07;3.80;;;22.10;45.60;;;;;;5036867;28;20506;-65
2023/06/08 08:54:17;;;;;;;4.93;4.63;;;22.10;45.60;;;;;;5031440;28;20564;-65
2023/06/08 08:56:42;;;;;;;4.87;4.27;;;22.10;45.50;;;;;;5028965;28;20474;-65
2023/06/08 08:59:09;;;;;;;4.13;3.93;;;22.10;45.60;;;;;;5032352;28;20961;-64
2023/06/08 09:01:35;;;;;;;4.03;3.73;;;22.10;45.50;;;;;;5034446;28;20324;-65
2023/06/08 09:04:01;;;;;;;4.43;4.13;;;22.10;45.60;;;;;;5037101;28;20474;-64
2023/06/08 09:06:30;;;;;;;6.03;4.13;;;22.10;45.60;;;;;;5032558;28;20221;-65
2023/06/08 09:08:56;;;;;;;4.17;3.87;;;22.10;45.50;;;;;;5036701;28;20546;-67
2023/06/08 09:11:22;;;;;;;4.27;3.97;;;22.10;45.50;;;;;;5030325;28;20693;-66
2023/06/08 09:13:48;;;;;;;4.33;4.13;;;22.10;45.60;;;;;;5036069;28;20269;-66
2023/06/08 09:16:21;;;;;;;4.30;4.00;;;22.10;45.60;;;;;;5037600;28;20882;-66
2023/06/08 09:19:03;;;;;;;4.17;3.90;;;22.10;45.50;;;;;;5037839;28;20256;-66
2023/06/08 09:21:28;;;;;;;4.33;4.03;;;22.10;45.50;;;;;;5032365;28;20467;-66
2023/06/08 09:24:14;;;;;;;4.10;3.90;;;22.10;45.50;;;;;;5036485;28;22205;-66
2023/06/08 09:26:51;;;;;;;4.23;4.03;;;22.10;45.60;;;;;;5031068;28;20218;-65
2023/06/08 09:29:44;;;;;;;4.47;4.17;;;22.10;45.50;;;;;;5034038;28;20478;-66
2023/06/08 09:32:13;;;;;;;4.93;4.40;;;22.10;45.50;;;;;;5037693;28;21055;-66
2023/06/08 09:34:58;;;;;;;4.70;4.40;;;22.10;45.50;;;;;;5034639;28;21086;-66
2023/06/08 09:37:30;;;;;;;4.80;4.60;;;22.10;45.50;;;;;;5036132;28;20469;-66
2023/06/08 09:39:58;;;;;;;4.37;4.17;;;22.10;45.50;;;;;;5032923;28;20478;-65
2023/06/08 09:42:39;;;;;;;4.43;4.03;;;22.10;45.50;;;;;;5032779;28;20876;-65
2023/06/08 09:45:11;;;;;;;3.60;3.40;;;22.10;45.50;;;;;;5032882;28;20454;-66
2023/06/08 09:47:36;;;;;;;4.57;4.07;;;22.10;45.50;;;;;;5034417;28;20450;-66
2023/06/08 09:50:05;;;;;;;5.10;4.80;;;22.10;45.60;;;;;;5039054;28;20505;-66
2023/06/08 09:52:33;;;;;;;4.37;4.17;;;22.10;45.60;;;;;;5029322;28;20634;-66
2023/06/08 09:54:59;;;;;;;4.20;4.00;;;22.10;45.50;;;;;;5033912;28;20557;-66
2023/06/08 09:57:27;;;;;;;4.23;3.93;;;22.10;45.60;;;;;;5035870;28;21017;-65
2023/06/08 10:00:13;;;;;;;4.43;4.03;;;22.10;45.50;;;;;;5034882;28;20478;-65
2023/06/08 10:03:12;;;;;;;4.70;4.40;;;22.10;45.50;;;;;;5037390;28;21015;-66
2023/06/08 10:05:46;;;;;;;4.47;4.27;;;22.10;45.50;;;;;;5012330;28;20504;-67
2023/06/08 10:08:20;;;;;;;4.20;3.90;;;22.10;46.00;;;;;;5037167;28;20502;-65
2023/06/08 10:10:47;;;;;;;4.10;3.90;;;22.10;45.50;;;;;;5035081;28;20501;-66
2023/06/08 10:13:14;;;;;;;4.30;4.00;;;22.10;45.50;;;;;;5037313;28;20996;-66
2023/06/08 10:15:41;;;;;;;4.27;4.07;;;22.10;45.50;;;;;;5037580;28;20446;-65
2023/06/08 10:18:08;;;;;;;4.57;4.37;;;22.10;45.60;;;;;;5040548;28;21395;-65
2023/06/08 10:20:35;;;;;;;3.53;3.33;;;22.10;45.60;;;;;;5037472;28;20689;-65
2023/06/08 10:23:02;;;;;;;4.30;4.00;;;22.10;45.60;;;;;;5040619;28;20861;-65
2023/06/08 10:25:30;;;;;;;3.70;3.50;;;22.10;45.50;;;;;;5037302;28;20471;-65
2023/06/08 10:28:03;;;;;;;4.13;3.90;;;22.20;45.60;;;;;;5040705;28;20554;-66
2023/06/08 10:30:30;;;;;;;4.70;4.40;;;22.10;45.50;;;;;;5036814;28;20471;-65
2023/06/08 10:33:16;;;;;;;4.13;3.83;;;22.10;45.50;;;;;;5037212;28;20584;-66
2023/06/08 10:36:02;;;;;;;4.07;3.87;;;22.10;45.50;;;;;;5035951;28;21110;-65
2023/06/08 10:38:29;;;;;;;4.20;3.90;;;22.10;45.50;;;;;;5034806;28;20570;-65
2023/06/08 10:40:55;;;;;;;4.47;4.27;;;22.10;45.50;;;;;;5032070;28;21018;-65
2023/06/08 10:43:27;;;;;;;4.47;4.27;;;22.10;45.60;;;;;;5042175;28;20458;-65
2023/06/08 10:45:53;;;;;;;4.10;3.90;;;22.10;45.50;;;;;;5034167;28;20237;-65
2023/06/08 10:48:20;;;;;;;4.30;4.10;;;22.10;45.50;;;;;;5037752;28;21257;-65
2023/06/08 10:50:48;;;;;;;4.27;4.07;;;22.10;45.50;;;;;;5032589;28;20226;-65
2023/06/08 10:53:20;;;;;;;4.63;4.43;;;22.10;45.50;;;;;;5033140;28;20479;-65
2023/06/08 10:55:50;;;;;;;4.47;4.27;;;22.20;45.60;;;;;;5030902;28;20470;-65
2023/06/08 10:58:20;;;;;;;4.23;4.03;;;22.20;45.70;;;;;;5019166;28;20487;-65
2023/06/08 11:00:52;;;;;;;4.40;4.20;;;22.10;45.50;;;;;;5031185;28;20819;-67
2023/06/08 11:03:19;;;;;;;4.50;4.20;;;22.20;45.60;;;;;;5027388;28;20474;-66
2023/06/08 11:05:50;;;;;;;4.13;3.93;;;22.20;45.60;;;;;;5037183;28;20463;-66
2023/06/08 11:08:16;;;;;;;4.30;4.10;;;22.20;45.70;;;;;;5035412;28;21098;-66
2023/06/08 11:10:42;;;;;;;3.83;3.63;;;22.20;45.60;;;;;;5036077;28;20957;-65
2023/06/08 11:13:17;;;;;;;4.20;4.00;;;22.20;45.60;;;;;;5039089;28;20467;-66
2023/06/08 11:15:48;;;;;;;4.40;4.20;;;22.20;45.70;;;;;;5029908;28;20528;-67
2023/06/08 11:18:18;;;;;;;4.30;4.00;;;22.20;45.60;;;;;;5040278;28;20450;-66
2023/06/08 11:20:44;;;;;;;4.53;4.33;;;22.20;45.60;;;;;;5039185;28;20483;-66
2023/06/08 11:23:11;;;;;;;4.70;4.40;;;22.20;45.70;;;;;;5040004;28;20565;-67
2023/06/08 11:25:38;;;;;;;4.80;4.53;;;22.20;45.60;;;;;;5031447;28;20214;-67
2023/06/08 11:28:04;;;;;;;4.90;4.70;;;22.20;45.60;;;;;;5038431;28;21428;-67
2023/06/08 11:30:34;;;;;;;4.50;4.30;;;22.20;45.60;;;;;;5034285;28;20467;-66
2023/06/08 11:33:03;;;;;;;4.50;4.20;;;22.20;45.60;;;;;;5036729;28;20295;-66
2023/06/08 11:35:29;;;;;;;4.20;4.00;;;22.20;45.60;;;;;;5035342;28;20614;-66
2023/06/08 11:37:59;;;;;;;4.20;4.00;;;22.20;45.70;;;;;;5039323;28;20565;-66
2023/06/08 11:40:25;;;;;;;4.80;4.60;;;22.20;45.60;;;;;;5036114;28;20222;-66
2023/06/08 11:42:51;;;;;;;4.47;4.20;;;22.20;45.70;;;;;;5036904;28;20566;-66
2023/06/08 11:45:17;;;;;;;4.23;4.03;;;22.20;45.70;;;;;;5034923;28;20493;-66
2023/06/08 11:47:44;;;;;;;4.53;4.33;;;22.20;45.60;;;;;;5038861;28;20468;-66
2023/06/08 11:50:13;;;;;;;4.60;4.30;;;22.20;45.60;;;;;;5035555;28;20229;-66
2023/06/08 11:52:41;;;;;;;4.40;4.20;;;22.20;45.60;;;;;;5043011;28;20964;-66
2023/06/08 11:55:12;;;;;;;4.37;4.17;;;22.20;45.60;;;;;;5027121;28;20567;-66
2023/06/08 11:57:50;;;;;;;4.90;4.60;;;22.20;45.60;;;;;;5033467;28;20513;-66
2023/06/08 12:00:19;;;;;;;4.70;4.50;;;22.20;45.60;;;;;;5035652;28;20478;-65
2023/06/08 12:02:49;;;;;;;4.70;4.40;;;22.20;45.60;;;;;;5037233;28;20531;-65
2023/06/08 12:05:21;;;;;;;4.40;4.20;;;22.20;45.60;;;;;;5031282;28;21143;-65
2023/06/08 12:07:57;;;;;;;4.77;4.37;;;22.20;45.60;;;;;;5034673;28;20520;-65
2023/06/08 12:10:31;;;;;;;4.67;4.37;;;22.20;45.60;;;;;;5037678;28;20473;-65
2023/06/08 12:12:57;;;;;;;5.03;4.73;;;22.20;45.60;;;;;;5034148;28;20566;-65
2023/06/08 12:15:22;;;;;;;5.00;4.70;;;22.20;45.60;;;;;;5036806;28;20575;-66
2023/06/08 12:17:48;;;;;;;5.20;4.90;;;22.20;45.60;;;;;;5038898;28;20244;-65
2023/06/08 12:20:16;;;;;;;5.00;4.77;;;22.20;45.60;;;;;;5023772;28;20234;-65
2023/06/08 12:22:41;;;;;;;5.93;5.53;;;22.20;45.60;;;;;;5039346;28;20256;-66
2023/06/08 12:25:08;;;;;;;5.03;4.83;;;22.20;45.60;;;;;;5030442;28;20554;-66
2023/06/08 12:27:37;;;;;;;4.97;4.57;;;22.20;45.60;;;;;;5042581;28;20222;-65
2023/06/08 12:30:04;;;;;;;5.03;4.40;;;22.20;45.70;;;;;;5032391;28;20933;-66
2023/06/08 12:32:31;;;;;;;5.23;4.93;;;22.20;45.60;;;;;;5036456;28;20475;-66
2023/06/08 12:34:56;;;;;;;4.77;4.57;;;22.20;45.60;;;;;;5034322;28;21017;-66
2023/06/08 12:37:22;;;;;;;5.30;4.90;;;22.20;45.60;;;;;;5036492;28;20455;-66
2023/06/08 12:39:47;;;;;;;5.13;4.83;;;22.30;45.80;;;;;;5035788;28;20811;-66
2023/06/08 12:42:13;;;;;;;5.30;5.10;;;22.30;45.70;;;;;;5036058;28;20217;-66
2023/06/08 12:44:39;;;;;;;4.80;4.50;;;22.30;45.70;;;;;;5035710;28;20887;-66
2023/06/08 12:47:04;;;;;;;5.37;5.07;;;22.30;45.70;;;;;;5037698;28;20238;-66
2023/06/08 12:49:30;;;;;;;5.27;4.97;;;22.30;45.70;;;;;;5035776;28;22201;-66
2023/06/08 12:51:56;;;;;;;5.20;4.80;;;22.30;45.70;;;;;;5038777;28;20218;-66